sensor_id;sensor_type;location;lat;lon;timestamp;P1;durP1;ratioP1;P2;durP2;ratioP2
19038;SDS011;9652;49.014;12.052;2022-08-19T00:00:36;16.70;;;12.73;;
19038;SDS011;9652;49.014;12.052;2022-08-19T00:03:04;15.77;;;12.83;;
19038;SDS011;9652;49.014;12.052;2022-08-19T00:05:33;14.83;;;12.40;;
19038;SDS011;9652;49.014;12.052;2022-08-19T00:08:00;13.10;;;11.53;;
19038;SDS011;9652;49.014;12.052;2022-08-19T00:10:28;13.63;;;11.50;;
19038;SDS011;9652;49.014;12.052;2022-08-19T00:12:56;13.27;;;11.87;;
19038;SDS011;9652;49.014;12.052;2022-08-19T00:15:23;13.87;;;12.07;;
19038;SDS011;9652;49.014;12.052;2022-08-19T00:17:51;14.30;;;11.77;;
19038;SDS011;9652;49.014;12.052;2022-08-19T00:20:18;12.60;;;11.33;;
19038;SDS011;9652;49.014;12.052;2022-08-19T00:22:48;16.00;;;12.17;;
19038;SDS011;9652;49.014;12.052;2022-08-19T00:25:15;14.00;;;11.73;;
19038;SDS011;9652;49.014;12.052;2022-08-19T00:27:43;15.90;;;12.90;;
19038;SDS011;9652;49.014;12.052;2022-08-19T00:30:12;13.70;;;12.13;;
19038;SDS011;9652;49.014;12.052;2022-08-19T00:32:40;14.20;;;12.70;;
19038;SDS011;9652;49.014;12.052;2022-08-19T00:35:07;13.77;;;12.17;;
19038;SDS011;9652;49.014;12.052;2022-08-19T00:37:35;14.50;;;12.73;;
19038;SDS011;9652;49.014;12.052;2022-08-19T00:40:04;13.07;;;11.67;;
19038;SDS011;9652;49.014;12.052;2022-08-19T00:42:34;13.13;;;11.43;;
19038;SDS011;9652;49.014;12.052;2022-08-19T00:45:01;11.90;;;10.70;;
19038;SDS011;9652;49.014;12.052;2022-08-19T00:47:37;13.40;;;11.10;;
19038;SDS011;9652;49.014;12.052;2022-08-19T00:50:05;13.97;;;11.27;;
19038;SDS011;9652;49.014;12.052;2022-08-19T00:52:37;13.43;;;11.77;;
19038;SDS011;9652;49.014;12.052;2022-08-19T00:55:11;12.97;;;11.67;;
19038;SDS011;9652;49.014;12.052;2022-08-19T00:57:45;14.17;;;11.83;;
19038;SDS011;9652;49.014;12.052;2022-08-19T01:00:17;12.27;;;10.47;;
19038;SDS011;9652;49.014;12.052;2022-08-19T01:02:46;12.50;;;10.87;;
19038;SDS011;9652;49.014;12.052;2022-08-19T01:05:14;14.73;;;11.50;;
19038;SDS011;9652;49.014;12.052;2022-08-19T01:07:46;12.37;;;11.07;;
19038;SDS011;9652;49.014;12.052;2022-08-19T01:10:17;11.73;;;10.53;;
19038;SDS011;9652;49.014;12.052;2022-08-19T01:12:47;12.10;;;10.60;;
19038;SDS011;9652;49.014;12.052;2022-08-19T01:15:17;11.40;;;10.13;;
19038;SDS011;9652;49.014;12.052;2022-08-19T01:17:51;12.33;;;10.90;;
19038;SDS011;9652;49.014;12.052;2022-08-19T01:20:22;12.37;;;10.47;;
19038;SDS011;9652;49.014;12.052;2022-08-19T01:22:52;12.47;;;11.17;;
19038;SDS011;9652;49.014;12.052;2022-08-19T01:25:23;13.37;;;11.33;;
19038;SDS011;9652;49.014;12.052;2022-08-19T01:27:56;12.40;;;11.10;;
19038;SDS011;9652;49.014;12.052;2022-08-19T01:30:24;13.90;;;10.77;;
19038;SDS011;9652;49.014;12.052;2022-08-19T01:32:57;12.80;;;10.40;;
19038;SDS011;9652;49.014;12.052;2022-08-19T01:35:26;14.67;;;10.80;;
19038;SDS011;9652;49.014;12.052;2022-08-19T01:37:57;12.20;;;10.90;;
19038;SDS011;9652;49.014;12.052;2022-08-19T01:40:28;11.43;;;10.23;;
19038;SDS011;9652;49.014;12.052;2022-08-19T01:42:58;11.80;;;9.97;;
19038;SDS011;9652;49.014;12.052;2022-08-19T01:45:26;11.80;;;10.03;;
19038;SDS011;9652;49.014;12.052;2022-08-19T01:47:56;13.50;;;10.17;;
19038;SDS011;9652;49.014;12.052;2022-08-19T01:50:24;11.83;;;10.63;;
19038;SDS011;9652;49.014;12.052;2022-08-19T01:52:52;11.00;;;9.77;;
19038;SDS011;9652;49.014;12.052;2022-08-19T01:55:21;12.13;;;10.93;;
19038;SDS011;9652;49.014;12.052;2022-08-19T01:57:50;14.47;;;12.10;;
19038;SDS011;9652;49.014;12.052;2022-08-19T02:00:24;14.33;;;11.67;;
19038;SDS011;9652;49.014;12.052;2022-08-19T02:02:55;15.00;;;12.60;;
19038;SDS011;9652;49.014;12.052;2022-08-19T02:05:23;13.33;;;11.93;;
19038;SDS011;9652;49.014;12.052;2022-08-19T02:07:50;15.53;;;11.83;;
19038;SDS011;9652;49.014;12.052;2022-08-19T02:10:18;14.37;;;12.00;;
19038;SDS011;9652;49.014;12.052;2022-08-19T02:12:48;13.40;;;10.83;;
19038;SDS011;9652;49.014;12.052;2022-08-19T02:15:15;13.03;;;11.00;;
19038;SDS011;9652;49.014;12.052;2022-08-19T02:17:44;12.00;;;10.80;;
19038;SDS011;9652;49.014;12.052;2022-08-19T02:20:11;12.27;;;9.93;;
19038;SDS011;9652;49.014;12.052;2022-08-19T02:22:39;11.50;;;9.50;;
19038;SDS011;9652;49.014;12.052;2022-08-19T02:25:08;10.27;;;9.17;;
19038;SDS011;9652;49.014;12.052;2022-08-19T02:27:37;10.43;;;9.43;;
19038;SDS011;9652;49.014;12.052;2022-08-19T02:30:06;11.63;;;9.90;;
19038;SDS011;9652;49.014;12.052;2022-08-19T02:32:37;12.33;;;9.93;;
19038;SDS011;9652;49.014;12.052;2022-08-19T02:35:05;11.17;;;9.87;;
19038;SDS011;9652;49.014;12.052;2022-08-19T02:37:33;10.97;;;8.63;;
19038;SDS011;9652;49.014;12.052;2022-08-19T02:40:18;9.77;;;8.77;;
19038;SDS011;9652;49.014;12.052;2022-08-19T02:42:47;10.37;;;9.27;;
19038;SDS011;9652;49.014;12.052;2022-08-19T02:45:14;10.27;;;9.00;;
19038;SDS011;9652;49.014;12.052;2022-08-19T02:47:41;9.53;;;8.50;;
19038;SDS011;9652;49.014;12.052;2022-08-19T02:50:09;10.00;;;8.90;;
19038;SDS011;9652;49.014;12.052;2022-08-19T02:52:36;10.93;;;9.20;;
19038;SDS011;9652;49.014;12.052;2022-08-19T02:55:04;11.00;;;9.57;;
19038;SDS011;9652;49.014;12.052;2022-08-19T02:57:32;10.07;;;9.03;;
19038;SDS011;9652;49.014;12.052;2022-08-19T03:00:02;10.63;;;9.47;;
19038;SDS011;9652;49.014;12.052;2022-08-19T03:02:32;11.87;;;9.93;;
19038;SDS011;9652;49.014;12.052;2022-08-19T03:04:59;10.10;;;9.00;;
19038;SDS011;9652;49.014;12.052;2022-08-19T03:07:26;9.33;;;8.37;;
19038;SDS011;9652;49.014;12.052;2022-08-19T03:09:53;11.03;;;9.93;;
19038;SDS011;9652;49.014;12.052;2022-08-19T03:12:20;14.13;;;10.50;;
19038;SDS011;9652;49.014;12.052;2022-08-19T03:14:47;12.47;;;10.00;;
19038;SDS011;9652;49.014;12.052;2022-08-19T03:17:16;11.03;;;9.10;;
19038;SDS011;9652;49.014;12.052;2022-08-19T03:19:43;11.30;;;9.63;;
19038;SDS011;9652;49.014;12.052;2022-08-19T03:22:10;9.87;;;8.87;;
19038;SDS011;9652;49.014;12.052;2022-08-19T03:24:37;11.77;;;9.60;;
19038;SDS011;9652;49.014;12.052;2022-08-19T03:27:05;9.70;;;8.70;;
19038;SDS011;9652;49.014;12.052;2022-08-19T03:29:32;9.30;;;8.40;;
19038;SDS011;9652;49.014;12.052;2022-08-19T03:32:04;9.73;;;8.67;;
19038;SDS011;9652;49.014;12.052;2022-08-19T03:34:33;10.57;;;9.17;;
19038;SDS011;9652;49.014;12.052;2022-08-19T03:37:04;12.47;;;9.10;;
19038;SDS011;9652;49.014;12.052;2022-08-19T03:39:35;10.83;;;9.40;;
19038;SDS011;9652;49.014;12.052;2022-08-19T03:42:04;10.17;;;8.27;;
19038;SDS011;9652;49.014;12.052;2022-08-19T03:44:32;12.13;;;8.83;;
19038;SDS011;9652;49.014;12.052;2022-08-19T03:47:02;10.67;;;9.03;;
19038;SDS011;9652;49.014;12.052;2022-08-19T03:49:31;11.53;;;9.53;;
19038;SDS011;9652;49.014;12.052;2022-08-19T03:52:01;10.67;;;9.57;;
19038;SDS011;9652;49.014;12.052;2022-08-19T03:54:32;9.57;;;8.57;;
19038;SDS011;9652;49.014;12.052;2022-08-19T03:57:00;14.83;;;8.90;;
19038;SDS011;9652;49.014;12.052;2022-08-19T03:59:28;10.67;;;8.50;;
19038;SDS011;9652;49.014;12.052;2022-08-19T04:02:02;9.77;;;8.77;;
19038;SDS011;9652;49.014;12.052;2022-08-19T04:04:35;9.10;;;8.20;;
19038;SDS011;9652;49.014;12.052;2022-08-19T04:07:03;9.60;;;8.60;;
19038;SDS011;9652;49.014;12.052;2022-08-19T04:09:32;9.63;;;8.47;;
19038;SDS011;9652;49.014;12.052;2022-08-19T04:12:01;10.03;;;9.03;;
19038;SDS011;9652;49.014;12.052;2022-08-19T04:14:30;10.27;;;8.27;;
19038;SDS011;9652;49.014;12.052;2022-08-19T04:16:59;10.63;;;8.97;;
19038;SDS011;9652;49.014;12.052;2022-08-19T04:19:30;10.33;;;8.93;;
19038;SDS011;9652;49.014;12.052;2022-08-19T04:21:59;10.50;;;9.40;;
19038;SDS011;9652;49.014;12.052;2022-08-19T04:24:26;10.90;;;9.80;;
19038;SDS011;9652;49.014;12.052;2022-08-19T04:26:54;9.77;;;8.50;;
19038;SDS011;9652;49.014;12.052;2022-08-19T04:29:23;10.37;;;8.67;;
19038;SDS011;9652;49.014;12.052;2022-08-19T04:31:52;10.40;;;8.83;;
19038;SDS011;9652;49.014;12.052;2022-08-19T04:34:22;10.33;;;9.33;;
19038;SDS011;9652;49.014;12.052;2022-08-19T04:36:52;9.83;;;8.83;;
19038;SDS011;9652;49.014;12.052;2022-08-19T04:39:24;9.63;;;8.70;;
19038;SDS011;9652;49.014;12.052;2022-08-19T04:42:08;12.67;;;9.37;;
19038;SDS011;9652;49.014;12.052;2022-08-19T04:44:53;11.07;;;9.17;;
19038;SDS011;9652;49.014;12.052;2022-08-19T04:47:20;10.10;;;8.93;;
19038;SDS011;9652;49.014;12.052;2022-08-19T04:49:47;10.87;;;8.30;;
19038;SDS011;9652;49.014;12.052;2022-08-19T04:52:14;9.87;;;8.87;;
19038;SDS011;9652;49.014;12.052;2022-08-19T04:54:43;11.50;;;8.97;;
19038;SDS011;9652;49.014;12.052;2022-08-19T04:57:10;12.97;;;9.50;;
19038;SDS011;9652;49.014;12.052;2022-08-19T04:59:37;9.53;;;8.23;;
19038;SDS011;9652;49.014;12.052;2022-08-19T05:02:06;8.90;;;8.00;;
19038;SDS011;9652;49.014;12.052;2022-08-19T05:04:34;11.60;;;8.97;;
19038;SDS011;9652;49.014;12.052;2022-08-19T05:07:04;11.17;;;9.33;;
19038;SDS011;9652;49.014;12.052;2022-08-19T05:09:32;9.83;;;8.40;;
19038;SDS011;9652;49.014;12.052;2022-08-19T05:12:01;10.47;;;9.33;;
19038;SDS011;9652;49.014;12.052;2022-08-19T05:14:30;10.30;;;9.03;;
19038;SDS011;9652;49.014;12.052;2022-08-19T05:16:57;11.23;;;9.70;;
19038;SDS011;9652;49.014;12.052;2022-08-19T05:19:24;12.20;;;9.23;;
19038;SDS011;9652;49.014;12.052;2022-08-19T05:22:24;10.00;;;9.00;;
19038;SDS011;9652;49.014;12.052;2022-08-19T05:25:02;9.27;;;8.33;;
19038;SDS011;9652;49.014;12.052;2022-08-19T05:27:33;9.73;;;8.73;;
19038;SDS011;9652;49.014;12.052;2022-08-19T05:30:00;10.47;;;8.80;;
19038;SDS011;9652;49.014;12.052;2022-08-19T05:32:27;11.33;;;9.20;;
19038;SDS011;9652;49.014;12.052;2022-08-19T05:34:54;12.97;;;9.50;;
19038;SDS011;9652;49.014;12.052;2022-08-19T05:37:21;10.47;;;9.07;;
19038;SDS011;9652;49.014;12.052;2022-08-19T05:39:51;9.00;;;8.10;;
19038;SDS011;9652;49.014;12.052;2022-08-19T05:42:20;9.93;;;8.47;;
19038;SDS011;9652;49.014;12.052;2022-08-19T05:44:50;10.30;;;8.73;;
19038;SDS011;9652;49.014;12.052;2022-08-19T05:47:17;11.47;;;8.53;;
19038;SDS011;9652;49.014;12.052;2022-08-19T05:49:45;10.60;;;9.50;;
19038;SDS011;9652;49.014;12.052;2022-08-19T05:52:15;10.17;;;9.00;;
19038;SDS011;9652;49.014;12.052;2022-08-19T05:54:42;11.90;;;8.63;;
19038;SDS011;9652;49.014;12.052;2022-08-19T05:57:12;10.33;;;8.90;;
19038;SDS011;9652;49.014;12.052;2022-08-19T05:59:40;10.07;;;9.00;;
19038;SDS011;9652;49.014;12.052;2022-08-19T06:02:08;9.17;;;8.27;;
19038;SDS011;9652;49.014;12.052;2022-08-19T06:04:35;11.23;;;9.07;;
19038;SDS011;9652;49.014;12.052;2022-08-19T06:07:02;11.47;;;8.87;;
19038;SDS011;9652;49.014;12.052;2022-08-19T06:09:30;10.30;;;8.87;;
19038;SDS011;9652;49.014;12.052;2022-08-19T06:11:57;9.87;;;8.30;;
19038;SDS011;9652;49.014;12.052;2022-08-19T06:14:28;10.70;;;8.60;;
19038;SDS011;9652;49.014;12.052;2022-08-19T06:16:59;9.97;;;8.80;;
19038;SDS011;9652;49.014;12.052;2022-08-19T06:19:29;10.30;;;8.63;;
19038;SDS011;9652;49.014;12.052;2022-08-19T06:21:57;9.83;;;8.83;;
19038;SDS011;9652;49.014;12.052;2022-08-19T06:24:27;9.33;;;8.30;;
19038;SDS011;9652;49.014;12.052;2022-08-19T06:26:56;10.83;;;8.73;;
19038;SDS011;9652;49.014;12.052;2022-08-19T06:29:25;9.57;;;8.23;;
19038;SDS011;9652;49.014;12.052;2022-08-19T06:31:55;11.20;;;8.80;;
19038;SDS011;9652;49.014;12.052;2022-08-19T06:34:25;9.33;;;8.43;;
19038;SDS011;9652;49.014;12.052;2022-08-19T06:36:57;10.83;;;9.40;;
19038;SDS011;9652;49.014;12.052;2022-08-19T06:39:27;10.20;;;8.63;;
19038;SDS011;9652;49.014;12.052;2022-08-19T06:41:58;10.87;;;9.67;;
19038;SDS011;9652;49.014;12.052;2022-08-19T06:44:29;10.40;;;9.10;;
19038;SDS011;9652;49.014;12.052;2022-08-19T06:47:00;12.10;;;9.23;;
19038;SDS011;9652;49.014;12.052;2022-08-19T06:49:29;12.40;;;10.07;;
19038;SDS011;9652;49.014;12.052;2022-08-19T06:51:57;11.77;;;9.60;;
19038;SDS011;9652;49.014;12.052;2022-08-19T06:54:25;12.93;;;10.60;;
19038;SDS011;9652;49.014;12.052;2022-08-19T06:56:54;10.63;;;9.53;;
19038;SDS011;9652;49.014;12.052;2022-08-19T06:59:23;11.27;;;10.00;;
19038;SDS011;9652;49.014;12.052;2022-08-19T07:01:54;10.17;;;9.07;;
19038;SDS011;9652;49.014;12.052;2022-08-19T07:04:24;10.80;;;9.27;;
19038;SDS011;9652;49.014;12.052;2022-08-19T07:06:59;13.43;;;10.43;;
19038;SDS011;9652;49.014;12.052;2022-08-19T07:09:31;10.90;;;9.53;;
19038;SDS011;9652;49.014;12.052;2022-08-19T07:11:58;12.50;;;9.50;;
19038;SDS011;9652;49.014;12.052;2022-08-19T07:14:26;13.57;;;10.30;;
19038;SDS011;9652;49.014;12.052;2022-08-19T07:16:55;10.57;;;9.20;;
19038;SDS011;9652;49.014;12.052;2022-08-19T07:19:24;11.80;;;10.27;;
19038;SDS011;9652;49.014;12.052;2022-08-19T07:21:52;12.77;;;10.27;;
19038;SDS011;9652;49.014;12.052;2022-08-19T07:24:23;11.47;;;9.37;;
19038;SDS011;9652;49.014;12.052;2022-08-19T07:26:53;12.20;;;9.90;;
19038;SDS011;9652;49.014;12.052;2022-08-19T07:29:25;11.30;;;10.10;;
19038;SDS011;9652;49.014;12.052;2022-08-19T07:31:55;10.40;;;9.30;;
19038;SDS011;9652;49.014;12.052;2022-08-19T07:34:24;10.50;;;8.87;;
19038;SDS011;9652;49.014;12.052;2022-08-19T07:36:53;10.97;;;8.77;;
19038;SDS011;9652;49.014;12.052;2022-08-19T07:39:22;11.53;;;9.33;;
19038;SDS011;9652;49.014;12.052;2022-08-19T07:41:52;12.70;;;9.13;;
19038;SDS011;9652;49.014;12.052;2022-08-19T07:44:20;9.63;;;8.63;;
19038;SDS011;9652;49.014;12.052;2022-08-19T07:46:49;9.17;;;7.63;;
19038;SDS011;9652;49.014;12.052;2022-08-19T07:49:22;10.80;;;8.80;;
19038;SDS011;9652;49.014;12.052;2022-08-19T07:51:50;8.70;;;7.70;;
19038;SDS011;9652;49.014;12.052;2022-08-19T07:54:22;10.37;;;8.50;;
19038;SDS011;9652;49.014;12.052;2022-08-19T07:56:53;9.57;;;7.90;;
19038;SDS011;9652;49.014;12.052;2022-08-19T07:59:20;9.17;;;7.20;;
19038;SDS011;9652;49.014;12.052;2022-08-19T08:01:50;9.80;;;7.60;;
19038;SDS011;9652;49.014;12.052;2022-08-19T08:04:19;9.60;;;8.07;;
19038;SDS011;9652;49.014;12.052;2022-08-19T08:07:05;8.60;;;7.43;;
19038;SDS011;9652;49.014;12.052;2022-08-19T08:09:52;9.20;;;8.03;;
19038;SDS011;9652;49.014;12.052;2022-08-19T08:12:20;10.43;;;8.23;;
19038;SDS011;9652;49.014;12.052;2022-08-19T08:14:54;9.43;;;8.43;;
19038;SDS011;9652;49.014;12.052;2022-08-19T08:17:25;9.73;;;8.50;;
19038;SDS011;9652;49.014;12.052;2022-08-19T08:19:54;9.83;;;8.40;;
19038;SDS011;9652;49.014;12.052;2022-08-19T08:22:22;10.77;;;8.87;;
19038;SDS011;9652;49.014;12.052;2022-08-19T08:25:11;10.10;;;8.87;;
19038;SDS011;9652;49.014;12.052;2022-08-19T08:27:43;9.40;;;8.37;;
19038;SDS011;9652;49.014;12.052;2022-08-19T08:30:12;10.60;;;8.80;;
19038;SDS011;9652;49.014;12.052;2022-08-19T08:32:42;9.53;;;8.53;;
19038;SDS011;9652;49.014;12.052;2022-08-19T08:35:10;9.43;;;8.23;;
19038;SDS011;9652;49.014;12.052;2022-08-19T08:37:42;9.50;;;8.13;;
19038;SDS011;9652;49.014;12.052;2022-08-19T08:40:20;9.07;;;8.10;;
19038;SDS011;9652;49.014;12.052;2022-08-19T08:43:06;9.90;;;8.00;;
19038;SDS011;9652;49.014;12.052;2022-08-19T08:45:47;9.53;;;8.07;;
19038;SDS011;9652;49.014;12.052;2022-08-19T08:48:23;9.67;;;8.53;;
19038;SDS011;9652;49.014;12.052;2022-08-19T08:51:07;9.87;;;8.17;;
19038;SDS011;9652;49.014;12.052;2022-08-19T08:53:40;9.73;;;8.30;;
19038;SDS011;9652;49.014;12.052;2022-08-19T08:56:14;10.10;;;7.93;;
19038;SDS011;9652;49.014;12.052;2022-08-19T08:58:47;9.20;;;8.00;;
19038;SDS011;9652;49.014;12.052;2022-08-19T09:01:22;9.40;;;7.60;;
19038;SDS011;9652;49.014;12.052;2022-08-19T09:03:49;7.53;;;6.57;;
19038;SDS011;9652;49.014;12.052;2022-08-19T09:06:19;8.37;;;7.47;;
19038;SDS011;9652;49.014;12.052;2022-08-19T09:08:59;8.30;;;6.77;;
19038;SDS011;9652;49.014;12.052;2022-08-19T09:11:37;7.97;;;6.87;;
19038;SDS011;9652;49.014;12.052;2022-08-19T09:14:19;7.50;;;6.80;;
19038;SDS011;9652;49.014;12.052;2022-08-19T09:17:06;8.17;;;7.20;;
19038;SDS011;9652;49.014;12.052;2022-08-19T09:19:35;9.33;;;7.70;;
19038;SDS011;9652;49.014;12.052;2022-08-19T09:22:15;9.73;;;7.87;;
19038;SDS011;9652;49.014;12.052;2022-08-19T09:24:46;8.63;;;7.73;;
19038;SDS011;9652;49.014;12.052;2022-08-19T09:27:16;10.43;;;7.37;;
19038;SDS011;9652;49.014;12.052;2022-08-19T09:29:44;8.53;;;7.40;;
19038;SDS011;9652;49.014;12.052;2022-08-19T09:32:14;8.07;;;7.00;;
19038;SDS011;9652;49.014;12.052;2022-08-19T09:34:42;8.67;;;7.30;;
19038;SDS011;9652;49.014;12.052;2022-08-19T09:37:09;8.27;;;7.30;;
19038;SDS011;9652;49.014;12.052;2022-08-19T09:39:37;7.77;;;6.97;;
19038;SDS011;9652;49.014;12.052;2022-08-19T09:42:09;8.37;;;7.27;;
19038;SDS011;9652;49.014;12.052;2022-08-19T09:44:39;10.27;;;7.10;;
19038;SDS011;9652;49.014;12.052;2022-08-19T09:47:07;9.20;;;7.30;;
19038;SDS011;9652;49.014;12.052;2022-08-19T09:49:36;8.03;;;6.90;;
19038;SDS011;9652;49.014;12.052;2022-08-19T09:52:04;7.07;;;6.30;;
19038;SDS011;9652;49.014;12.052;2022-08-19T09:54:32;7.30;;;6.10;;
19038;SDS011;9652;49.014;12.052;2022-08-19T09:57:00;7.47;;;6.20;;
19038;SDS011;9652;49.014;12.052;2022-08-19T09:59:27;7.87;;;6.93;;
19038;SDS011;9652;49.014;12.052;2022-08-19T10:01:57;9.37;;;6.77;;
19038;SDS011;9652;49.014;12.052;2022-08-19T10:04:24;7.27;;;6.27;;
19038;SDS011;9652;49.014;12.052;2022-08-19T10:07:12;12.00;;;6.17;;
19038;SDS011;9652;49.014;12.052;2022-08-19T10:09:39;7.57;;;6.40;;
19038;SDS011;9652;49.014;12.052;2022-08-19T10:12:06;6.17;;;5.57;;
19038;SDS011;9652;49.014;12.052;2022-08-19T10:14:34;6.50;;;5.70;;
19038;SDS011;9652;49.014;12.052;2022-08-19T10:17:03;8.83;;;5.50;;
19038;SDS011;9652;49.014;12.052;2022-08-19T10:19:30;7.23;;;6.43;;
19038;SDS011;9652;49.014;12.052;2022-08-19T10:22:02;6.97;;;6.27;;
19038;SDS011;9652;49.014;12.052;2022-08-19T10:24:30;6.47;;;5.73;;
19038;SDS011;9652;49.014;12.052;2022-08-19T10:26:59;6.60;;;5.63;;
19038;SDS011;9652;49.014;12.052;2022-08-19T10:29:28;6.63;;;5.73;;
19038;SDS011;9652;49.014;12.052;2022-08-19T10:31:56;6.77;;;6.00;;
19038;SDS011;9652;49.014;12.052;2022-08-19T10:34:26;11.13;;;5.80;;
19038;SDS011;9652;49.014;12.052;2022-08-19T10:36:56;7.53;;;5.93;;
19038;SDS011;9652;49.014;12.052;2022-08-19T10:39:25;7.40;;;6.03;;
19038;SDS011;9652;49.014;12.052;2022-08-19T10:41:54;7.17;;;6.43;;
19038;SDS011;9652;49.014;12.052;2022-08-19T10:44:22;6.80;;;5.67;;
19038;SDS011;9652;49.014;12.052;2022-08-19T10:46:50;8.10;;;6.10;;
19038;SDS011;9652;49.014;12.052;2022-08-19T10:49:17;7.30;;;6.03;;
19038;SDS011;9652;49.014;12.052;2022-08-19T10:51:47;7.73;;;6.10;;
19038;SDS011;9652;49.014;12.052;2022-08-19T10:54:32;7.40;;;6.30;;
19038;SDS011;9652;49.014;12.052;2022-08-19T10:57:17;6.63;;;5.87;;
19038;SDS011;9652;49.014;12.052;2022-08-19T10:59:44;7.20;;;6.00;;
19038;SDS011;9652;49.014;12.052;2022-08-19T11:02:11;7.20;;;6.50;;
19038;SDS011;9652;49.014;12.052;2022-08-19T11:04:39;7.77;;;6.77;;
19038;SDS011;9652;49.014;12.052;2022-08-19T11:07:08;7.40;;;6.67;;
19038;SDS011;9652;49.014;12.052;2022-08-19T11:09:37;7.73;;;6.93;;
19038;SDS011;9652;49.014;12.052;2022-08-19T11:12:07;8.43;;;6.95;;
19038;SDS011;9652;49.014;12.052;2022-08-19T11:14:35;8.50;;;7.30;;
19038;SDS011;9652;49.014;12.052;2022-08-19T11:17:03;9.43;;;7.30;;
19038;SDS011;9652;49.014;12.052;2022-08-19T11:19:32;8.52;;;7.47;;
19038;SDS011;9652;49.014;12.052;2022-08-19T11:22:00;8.43;;;7.63;;
19038;SDS011;9652;49.014;12.052;2022-08-19T11:24:29;8.63;;;7.77;;
19038;SDS011;9652;49.014;12.052;2022-08-19T11:27:00;9.60;;;8.03;;
19038;SDS011;9652;49.014;12.052;2022-08-19T11:29:30;8.70;;;7.73;;
19038;SDS011;9652;49.014;12.052;2022-08-19T11:31:59;8.07;;;7.23;;
19038;SDS011;9652;49.014;12.052;2022-08-19T11:34:31;8.40;;;7.53;;
19038;SDS011;9652;49.014;12.052;2022-08-19T11:36:58;9.93;;;7.97;;
19038;SDS011;9652;49.014;12.052;2022-08-19T11:39:26;10.50;;;7.10;;
19038;SDS011;9652;49.014;12.052;2022-08-19T11:41:57;8.43;;;7.53;;
19038;SDS011;9652;49.014;12.052;2022-08-19T11:44:25;11.50;;;8.03;;
19038;SDS011;9652;49.014;12.052;2022-08-19T11:46:55;9.93;;;8.57;;
19038;SDS011;9652;49.014;12.052;2022-08-19T11:49:22;10.17;;;8.40;;
19038;SDS011;9652;49.014;12.052;2022-08-19T11:51:49;10.17;;;8.23;;
19038;SDS011;9652;49.014;12.052;2022-08-19T11:54:16;9.57;;;8.47;;
19038;SDS011;9652;49.014;12.052;2022-08-19T11:56:45;9.50;;;8.20;;
19038;SDS011;9652;49.014;12.052;2022-08-19T11:59:14;8.47;;;7.30;;
19038;SDS011;9652;49.014;12.052;2022-08-19T12:01:41;9.83;;;7.83;;
19038;SDS011;9652;49.014;12.052;2022-08-19T12:04:08;8.27;;;7.40;;
19038;SDS011;9652;49.014;12.052;2022-08-19T12:06:37;9.63;;;7.83;;
19038;SDS011;9652;49.014;12.052;2022-08-19T12:09:07;10.60;;;7.83;;
19038;SDS011;9652;49.014;12.052;2022-08-19T12:11:36;8.67;;;7.27;;
19038;SDS011;9652;49.014;12.052;2022-08-19T12:14:06;9.37;;;7.73;;
19038;SDS011;9652;49.014;12.052;2022-08-19T12:16:39;10.10;;;8.53;;
19038;SDS011;9652;49.014;12.052;2022-08-19T12:19:06;10.27;;;8.57;;
19038;SDS011;9652;49.014;12.052;2022-08-19T12:21:34;14.63;;;7.63;;
19038;SDS011;9652;49.014;12.052;2022-08-19T12:24:03;11.07;;;7.80;;
19038;SDS011;9652;49.014;12.052;2022-08-19T12:26:32;11.13;;;7.97;;
19038;SDS011;9652;49.014;12.052;2022-08-19T12:29:00;8.47;;;7.17;;
19038;SDS011;9652;49.014;12.052;2022-08-19T12:31:28;8.10;;;7.10;;
19038;SDS011;9652;49.014;12.052;2022-08-19T12:33:56;8.33;;;7.43;;
19038;SDS011;9652;49.014;12.052;2022-08-19T12:36:24;12.27;;;8.27;;
19038;SDS011;9652;49.014;12.052;2022-08-19T12:38:51;8.93;;;7.80;;
19038;SDS011;9652;49.014;12.052;2022-08-19T12:41:19;9.83;;;7.80;;
19038;SDS011;9652;49.014;12.052;2022-08-19T12:43:47;8.80;;;7.50;;
19038;SDS011;9652;49.014;12.052;2022-08-19T12:46:15;9.53;;;7.73;;
19038;SDS011;9652;49.014;12.052;2022-08-19T12:48:45;8.30;;;7.47;;
19038;SDS011;9652;49.014;12.052;2022-08-19T12:51:13;9.57;;;7.93;;
19038;SDS011;9652;49.014;12.052;2022-08-19T12:53:43;9.57;;;8.57;;
19038;SDS011;9652;49.014;12.052;2022-08-19T12:56:11;9.30;;;8.30;;
19038;SDS011;9652;49.014;12.052;2022-08-19T12:58:40;10.83;;;8.63;;
19038;SDS011;9652;49.014;12.052;2022-08-19T13:01:09;9.87;;;8.77;;
19038;SDS011;9652;49.014;12.052;2022-08-19T13:03:41;9.23;;;7.87;;
19038;SDS011;9652;49.014;12.052;2022-08-19T13:06:10;11.43;;;7.77;;
19038;SDS011;9652;49.014;12.052;2022-08-19T13:08:37;11.07;;;8.93;;
19038;SDS011;9652;49.014;12.052;2022-08-19T13:11:09;9.27;;;7.87;;
19038;SDS011;9652;49.014;12.052;2022-08-19T13:13:38;10.93;;;8.63;;
19038;SDS011;9652;49.014;12.052;2022-08-19T13:16:07;10.93;;;8.23;;
19038;SDS011;9652;49.014;12.052;2022-08-19T13:18:36;9.63;;;8.40;;
19038;SDS011;9652;49.014;12.052;2022-08-19T13:21:04;9.27;;;7.90;;
19038;SDS011;9652;49.014;12.052;2022-08-19T13:23:35;9.23;;;8.27;;
19038;SDS011;9652;49.014;12.052;2022-08-19T13:26:03;8.27;;;7.33;;
19038;SDS011;9652;49.014;12.052;2022-08-19T13:28:33;9.40;;;8.30;;
19038;SDS011;9652;49.014;12.052;2022-08-19T13:31:20;9.90;;;8.90;;
19038;SDS011;9652;49.014;12.052;2022-08-19T13:34:07;10.57;;;8.27;;
19038;SDS011;9652;49.014;12.052;2022-08-19T13:36:35;9.10;;;8.13;;
19038;SDS011;9652;49.014;12.052;2022-08-19T13:39:06;9.20;;;8.07;;
19038;SDS011;9652;49.014;12.052;2022-08-19T13:41:34;9.63;;;8.53;;
19038;SDS011;9652;49.014;12.052;2022-08-19T13:44:03;9.57;;;8.53;;
19038;SDS011;9652;49.014;12.052;2022-08-19T13:46:31;10.20;;;8.33;;
19038;SDS011;9652;49.014;12.052;2022-08-19T13:48:58;10.63;;;9.00;;
19038;SDS011;9652;49.014;12.052;2022-08-19T13:51:25;9.23;;;7.97;;
19038;SDS011;9652;49.014;12.052;2022-08-19T13:53:52;9.43;;;8.20;;
19038;SDS011;9652;49.014;12.052;2022-08-19T13:56:21;8.87;;;7.97;;
19038;SDS011;9652;49.014;12.052;2022-08-19T13:58:48;9.73;;;7.93;;
19038;SDS011;9652;49.014;12.052;2022-08-19T14:01:18;10.13;;;7.63;;
19038;SDS011;9652;49.014;12.052;2022-08-19T14:03:46;9.10;;;7.80;;
19038;SDS011;9652;49.014;12.052;2022-08-19T14:06:13;8.53;;;7.37;;
19038;SDS011;9652;49.014;12.052;2022-08-19T14:08:41;8.53;;;7.63;;
19038;SDS011;9652;49.014;12.052;2022-08-19T14:11:10;8.30;;;7.33;;
19038;SDS011;9652;49.014;12.052;2022-08-19T14:13:38;8.27;;;7.47;;
19038;SDS011;9652;49.014;12.052;2022-08-19T14:16:06;8.57;;;7.37;;
19038;SDS011;9652;49.014;12.052;2022-08-19T14:18:35;9.00;;;7.40;;
19038;SDS011;9652;49.014;12.052;2022-08-19T14:21:02;9.70;;;6.97;;
19038;SDS011;9652;49.014;12.052;2022-08-19T14:23:30;8.53;;;7.63;;
19038;SDS011;9652;49.014;12.052;2022-08-19T14:26:04;8.55;;;7.25;;
19038;SDS011;9652;49.014;12.052;2022-08-19T14:28:32;9.10;;;8.13;;
19038;SDS011;9652;49.014;12.052;2022-08-19T14:31:01;11.00;;;7.53;;
19038;SDS011;9652;49.014;12.052;2022-08-19T14:33:28;9.00;;;7.77;;
19038;SDS011;9652;49.014;12.052;2022-08-19T14:35:55;11.70;;;8.17;;
19038;SDS011;9652;49.014;12.052;2022-08-19T14:38:22;10.10;;;8.80;;
19038;SDS011;9652;49.014;12.052;2022-08-19T14:40:49;11.30;;;8.40;;
19038;SDS011;9652;49.014;12.052;2022-08-19T14:43:17;10.07;;;8.30;;
19038;SDS011;9652;49.014;12.052;2022-08-19T14:45:44;8.93;;;8.03;;
19038;SDS011;9652;49.014;12.052;2022-08-19T14:48:12;8.43;;;7.33;;
19038;SDS011;9652;49.014;12.052;2022-08-19T14:50:39;9.53;;;7.33;;
19038;SDS011;9652;49.014;12.052;2022-08-19T14:53:07;8.63;;;7.53;;